createdAt,value
2017-03-12T00:00:41.874Z,0
2017-03-12T00:01:51.289Z,0
2017-03-12T00:03:01.194Z,0
2017-03-12T00:04:10.190Z,0
2017-03-12T00:05:19.588Z,0
2017-03-12T00:06:29.401Z,0
2017-03-12T00:07:39.214Z,0
2017-03-12T00:08:47.953Z,0
2017-03-12T00:09:57.140Z,0
2017-03-12T00:11:06.160Z,0
2017-03-12T00:12:16.033Z,0
2017-03-12T00:13:24.633Z,0
2017-03-12T00:14:33.533Z,0
2017-03-12T00:15:42.538Z,0
2017-03-12T00:16:52.349Z,0
2017-03-12T00:18:01.356Z,0
2017-03-12T00:19:10.757Z,0
2017-03-12T00:20:20.231Z,0
2017-03-12T00:21:29.245Z,0
2017-03-12T00:22:38.647Z,0
2017-03-12T00:23:47.645Z,0
2017-03-12T00:24:56.641Z,0
2017-03-12T00:26:06.845Z,0
2017-03-12T00:27:15.444Z,0
2017-03-12T00:28:24.921Z,0
2017-03-12T00:29:34.339Z,0
2017-03-12T00:30:43.358Z,0
2017-03-12T00:31:52.749Z,0
2017-03-12T00:33:01.778Z,0
2017-03-12T00:34:10.978Z,0
2017-03-12T00:35:20.389Z,0
2017-03-12T00:36:29.420Z,0
2017-03-12T00:37:39.633Z,0
2017-03-12T00:38:49.181Z,0
2017-03-12T00:39:57.796Z,0
2017-03-12T00:41:06.797Z,0
2017-03-12T00:42:16.203Z,0
2017-03-12T00:43:25.624Z,0
2017-03-12T00:44:35.038Z,0
2017-03-12T00:45:44.046Z,0
2017-03-12T00:46:53.863Z,0
2017-03-12T00:48:02.863Z,0
2017-03-12T00:49:11.871Z,0
2017-03-12T00:50:21.266Z,0
2017-03-12T00:51:30.293Z,0
2017-03-12T00:52:39.307Z,0
2017-03-12T00:53:48.323Z,0
2017-03-12T00:54:58.135Z,0
2017-03-12T00:56:07.160Z,0
2017-03-12T00:57:15.756Z,0
2017-03-12T00:58:25.944Z,0
2017-03-12T00:59:34.945Z,0
2017-03-12T01:00:43.951Z,0
2017-03-12T01:01:53.391Z,0
2017-03-12T01:03:02.831Z,0
2017-03-12T01:04:11.854Z,0
2017-03-12T01:05:21.271Z,0
2017-03-12T01:06:30.304Z,0
2017-03-12T01:07:39.323Z,0
2017-03-12T01:08:47.961Z,0
2017-03-12T01:09:57.384Z,0
2017-03-12T01:11:06.003Z,0
2017-03-12T01:12:16.084Z,0
2017-03-12T01:13:25.912Z,0
2017-03-12T01:14:35.313Z,0
2017-03-12T01:15:44.728Z,0
2017-03-12T01:16:54.124Z,0
2017-03-12T01:18:03.934Z,0
2017-03-12T01:19:12.947Z,0
2017-03-12T01:20:21.992Z,0
2017-03-12T01:21:31.554Z,0
2017-03-12T01:22:40.954Z,0
2017-03-12T01:23:50.758Z,0
2017-03-12T01:24:59.386Z,0
2017-03-12T01:26:08.840Z,0
2017-03-12T01:27:18.239Z,0
2017-03-12T01:28:28.042Z,0
2017-03-12T01:29:37.450Z,0
2017-03-12T01:30:46.467Z,0
2017-03-12T01:31:55.497Z,0
2017-03-12T01:33:04.114Z,0
2017-03-12T01:34:13.533Z,0
2017-03-12T01:35:22.966Z,0
2017-03-12T01:36:31.990Z,0
2017-03-12T01:37:42.192Z,0
2017-03-12T01:38:52.006Z,0
2017-03-12T01:40:00.643Z,0
2017-03-12T01:41:10.481Z,0
2017-03-12T01:42:19.402Z,0
2017-03-12T01:43:29.225Z,0
2017-03-12T01:44:38.625Z,0
2017-03-12T01:45:47.645Z,0
2017-03-12T01:46:57.053Z,0
2017-03-12T01:48:06.319Z,0
2017-03-12T01:49:15.346Z,0
2017-03-12T01:50:24.344Z,0
2017-03-12T01:51:33.349Z,0
2017-03-12T01:52:42.345Z,0
2017-03-12T01:53:51.346Z,0
2017-03-12T01:55:00.776Z,0
2017-03-12T01:56:10.197Z,0
2017-03-12T01:57:19.618Z,0
2017-03-12T01:58:29.013Z,0
2017-03-12T01:59:39.081Z,0
2017-03-12T02:00:48.079Z,0
2017-03-12T02:01:57.080Z,0
2017-03-12T02:03:05.687Z,0
2017-03-12T02:04:15.114Z,0
2017-03-12T02:05:23.817Z,0
2017-03-12T02:06:32.829Z,0
2017-03-12T02:07:42.230Z,0
2017-03-12T02:08:50.849Z,0
2017-03-12T02:09:59.464Z,0
2017-03-12T02:11:08.466Z,0
2017-03-12T02:12:17.481Z,0
2017-03-12T02:13:26.919Z,0
2017-03-12T02:14:37.123Z,0
2017-03-12T02:15:46.142Z,0
2017-03-12T02:16:55.545Z,0
2017-03-12T02:18:04.546Z,0
2017-03-12T02:19:13.565Z,0
2017-03-12T02:20:22.595Z,0
2017-03-12T02:21:31.598Z,0
2017-03-12T02:22:40.645Z,0
2017-03-12T02:23:50.041Z,0
2017-03-12T02:24:59.841Z,0
2017-03-12T02:26:09.238Z,0
2017-03-12T02:27:19.041Z,0
2017-03-12T02:28:28.455Z,0
2017-03-12T02:29:38.271Z,0
2017-03-12T02:30:47.688Z,0
2017-03-12T02:31:56.287Z,0
2017-03-12T02:33:05.292Z,0
2017-03-12T02:34:14.291Z,0
2017-03-12T02:35:23.715Z,0
2017-03-12T02:36:33.373Z,0
2017-03-12T02:37:42.417Z,0
2017-03-12T02:38:51.419Z,0
2017-03-12T02:40:00.841Z,0
2017-03-12T02:41:09.440Z,0
2017-03-12T02:42:18.448Z,0
2017-03-12T02:43:27.844Z,0
2017-03-12T02:44:36.888Z,0
2017-03-12T02:45:46.692Z,0
2017-03-12T02:46:55.687Z,0
2017-03-12T02:48:04.711Z,0
2017-03-12T02:49:13.711Z,0
2017-03-12T02:50:22.323Z,0
2017-03-12T02:51:31.342Z,0
2017-03-12T02:52:40.366Z,0
2017-03-12T02:53:49.434Z,0
2017-03-12T02:54:58.444Z,0
2017-03-12T02:56:07.861Z,0
2017-03-12T02:57:16.488Z,0
2017-03-12T02:58:25.507Z,0
2017-03-12T02:59:35.746Z,0
2017-03-12T03:00:45.155Z,0
2017-03-12T03:01:53.761Z,0
2017-03-12T03:03:02.397Z,0
2017-03-12T03:04:11.407Z,0
2017-03-12T03:05:20.006Z,0
2017-03-12T03:06:28.607Z,0
2017-03-12T03:07:37.624Z,0
2017-03-12T03:08:47.058Z,0
2017-03-12T03:09:56.073Z,0
2017-03-12T03:11:05.482Z,0
2017-03-12T03:12:14.093Z,0
2017-03-12T03:13:22.688Z,0
2017-03-12T03:14:31.691Z,0
2017-03-12T03:15:40.725Z,0
2017-03-12T03:16:50.540Z,0
2017-03-12T03:17:59.949Z,0
2017-03-12T03:19:08.960Z,0
2017-03-12T03:20:18.388Z,0
2017-03-12T03:21:27.404Z,0
2017-03-12T03:22:37.239Z,0
2017-03-12T03:23:45.843Z,0
2017-03-12T03:24:54.842Z,0
2017-03-12T03:26:03.454Z,0
2017-03-12T03:27:12.076Z,0
2017-03-12T03:28:21.494Z,0
2017-03-12T03:29:30.922Z,0
2017-03-12T03:30:39.921Z,0
2017-03-12T03:31:48.913Z,0
2017-03-12T03:32:58.710Z,0
2017-03-12T03:34:07.339Z,0
2017-03-12T03:35:16.789Z,0
2017-03-12T03:36:25.799Z,0
2017-03-12T03:37:35.597Z,0
2017-03-12T03:38:44.190Z,0
2017-03-12T03:39:53.600Z,0
2017-03-12T03:41:02.221Z,0
2017-03-12T03:42:11.228Z,0
2017-03-12T03:43:20.250Z,0
2017-03-12T03:44:29.919Z,0
2017-03-12T03:45:39.329Z,0
2017-03-12T03:46:48.342Z,0
2017-03-12T03:47:57.338Z,0
2017-03-12T03:49:05.942Z,0
2017-03-12T03:50:15.345Z,0
2017-03-12T03:51:24.754Z,0
2017-03-12T03:52:34.149Z,0
2017-03-12T03:53:43.569Z,0
2017-03-12T03:54:52.993Z,0
2017-03-12T03:56:02.402Z,0
2017-03-12T03:57:11.402Z,0
2017-03-12T03:58:20.806Z,0
2017-03-12T03:59:30.222Z,0
2017-03-12T04:00:39.218Z,0
2017-03-12T04:01:48.253Z,0
2017-03-12T04:02:57.268Z,0
2017-03-12T04:04:07.067Z,0
2017-03-12T04:05:15.662Z,0
2017-03-12T04:06:24.251Z,0
2017-03-12T04:07:32.853Z,0
2017-03-12T04:08:41.876Z,0
2017-03-12T04:09:50.877Z,0
2017-03-12T04:11:01.087Z,0
2017-03-12T04:12:10.480Z,0
2017-03-12T04:13:20.284Z,0
2017-03-12T04:14:29.306Z,0
2017-03-12T04:15:39.505Z,0
2017-03-12T04:16:48.910Z,0
2017-03-12T04:17:58.525Z,0
2017-03-12T04:19:08.344Z,0
2017-03-12T04:20:17.384Z,0
2017-03-12T04:21:26.390Z,0
2017-03-12T04:22:35.794Z,0
2017-03-12T04:23:45.224Z,0
2017-03-12T04:24:54.685Z,0
2017-03-12T04:26:04.510Z,0
2017-03-12T04:27:13.129Z,0
2017-03-12T04:28:22.122Z,0
2017-03-12T04:29:31.914Z,0
2017-03-12T04:30:40.958Z,0
2017-03-12T04:31:49.968Z,0
2017-03-12T04:32:59.375Z,0
2017-03-12T04:34:08.374Z,0
2017-03-12T04:35:17.387Z,0
2017-03-12T04:36:26.028Z,0
2017-03-12T04:37:35.241Z,0
2017-03-12T04:38:45.125Z,0
2017-03-12T04:39:54.260Z,0
2017-03-12T04:41:03.666Z,0
2017-03-12T04:42:12.274Z,0
2017-03-12T04:43:21.302Z,0
2017-03-12T04:44:30.709Z,0
2017-03-12T04:45:39.408Z,0
2017-03-12T04:46:48.832Z,0
2017-03-12T04:47:58.225Z,0
2017-03-12T04:49:07.223Z,0
2017-03-12T04:50:16.221Z,0
2017-03-12T04:51:25.614Z,0
2017-03-12T04:52:35.019Z,0
2017-03-12T04:53:43.778Z,0
2017-03-12T04:54:52.923Z,0
2017-03-12T04:56:02.011Z,0
2017-03-12T04:57:11.085Z,0
2017-03-12T04:58:19.982Z,0
2017-03-12T04:59:28.759Z,0
2017-03-12T05:00:38.206Z,0
2017-03-12T05:01:48.122Z,0
2017-03-12T05:02:57.227Z,0
2017-03-12T05:04:06.678Z,0
2017-03-12T05:05:16.156Z,0
2017-03-12T05:06:25.687Z,0
2017-03-12T05:07:34.753Z,0
2017-03-12T05:08:43.786Z,0
2017-03-12T05:09:53.629Z,0
2017-03-12T05:11:02.771Z,0
2017-03-12T05:12:12.586Z,0
2017-03-12T05:13:21.245Z,0
2017-03-12T05:14:30.283Z,0
2017-03-12T05:15:39.327Z,0
2017-03-12T05:16:48.799Z,0
2017-03-12T05:17:57.866Z,0
2017-03-12T05:19:07.387Z,0
2017-03-12T05:20:16.058Z,0
2017-03-12T05:21:25.109Z,0
2017-03-12T05:22:34.241Z,0
2017-03-12T05:23:43.360Z,0
2017-03-12T05:24:52.880Z,0
2017-03-12T05:26:01.914Z,0
2017-03-12T05:27:10.541Z,0
2017-03-12T05:28:20.099Z,0
2017-03-12T05:29:29.493Z,0
2017-03-12T05:30:39.438Z,0
2017-03-12T05:31:49.262Z,0
2017-03-12T05:32:58.346Z,0
2017-03-12T05:34:07.838Z,0
2017-03-12T05:35:17.287Z,0
2017-03-12T05:36:26.747Z,0
2017-03-12T05:37:35.837Z,0
2017-03-12T05:38:45.777Z,0
2017-03-12T05:39:55.312Z,0
2017-03-12T05:41:05.218Z,0
2017-03-12T05:42:14.716Z,0
2017-03-12T05:43:23.421Z,0
2017-03-12T05:44:33.346Z,0
2017-03-12T05:45:42.393Z,0
2017-03-12T05:46:51.926Z,0
2017-03-12T05:48:01.325Z,0
2017-03-12T05:49:10.903Z,0
2017-03-12T05:50:20.009Z,5
2017-03-12T05:51:28.626Z,5
2017-03-12T05:52:38.134Z,5
2017-03-12T05:53:47.136Z,5
2017-03-12T05:54:56.530Z,5
2017-03-12T05:56:06.235Z,5
2017-03-12T05:57:14.838Z,5
2017-03-12T05:58:23.849Z,10
2017-03-12T05:59:33.669Z,10
2017-03-12T06:00:42.671Z,10
2017-03-12T06:01:51.680Z,10
2017-03-12T06:03:01.074Z,15
2017-03-12T06:04:10.487Z,15
2017-03-12T06:05:19.498Z,15
2017-03-12T06:06:28.494Z,15
2017-03-12T06:07:37.516Z,15
2017-03-12T06:08:46.516Z,20
2017-03-12T06:09:55.120Z,20
2017-03-12T06:11:03.746Z,20
2017-03-12T06:12:13.176Z,25
2017-03-12T06:13:22.174Z,25
2017-03-12T06:14:30.802Z,25
2017-03-12T06:15:39.825Z,25
2017-03-12T06:16:49.224Z,30
2017-03-12T06:17:58.641Z,30
2017-03-12T06:19:07.635Z,30
2017-03-12T06:20:17.058Z,35
2017-03-12T06:21:26.057Z,35
2017-03-12T06:22:34.675Z,35
2017-03-12T06:23:43.712Z,40
2017-03-12T06:24:52.733Z,40
2017-03-12T06:26:02.146Z,40
2017-03-12T06:27:11.466Z,45
2017-03-12T06:28:20.482Z,45
2017-03-12T06:29:29.106Z,45
2017-03-12T06:30:38.528Z,50
2017-03-12T06:31:47.537Z,50
2017-03-12T06:32:56.954Z,50
2017-03-12T06:34:05.558Z,55
2017-03-12T06:35:14.568Z,55
2017-03-12T06:36:23.199Z,55
2017-03-12T06:37:32.631Z,55
2017-03-12T06:38:41.688Z,60
2017-03-12T06:39:51.108Z,60
2017-03-12T06:41:00.115Z,60
2017-03-12T06:42:08.745Z,60
2017-03-12T06:43:17.740Z,60
2017-03-12T06:44:27.148Z,60
2017-03-12T06:45:36.976Z,65
2017-03-12T06:46:46.372Z,65
2017-03-12T06:47:55.766Z,65
2017-03-12T06:49:05.570Z,70
2017-03-12T06:50:14.599Z,70
2017-03-12T06:51:23.611Z,75
2017-03-12T06:52:32.634Z,75
2017-03-12T06:53:41.256Z,80
2017-03-12T06:54:50.255Z,80
2017-03-12T06:55:59.253Z,80
2017-03-12T06:57:08.675Z,85
2017-03-12T06:58:17.692Z,85
2017-03-12T06:59:26.937Z,90
2017-03-12T07:00:36.340Z,90
2017-03-12T07:01:45.778Z,90
2017-03-12T07:02:54.407Z,95
2017-03-12T07:04:05.174Z,95
2017-03-12T07:05:14.383Z,100
2017-03-12T07:06:23.995Z,100
2017-03-12T07:07:33.798Z,105
2017-03-12T07:08:42.403Z,105
2017-03-12T07:09:52.120Z,105
2017-03-12T07:11:01.558Z,105
2017-03-12T07:12:10.386Z,105
2017-03-12T07:13:19.448Z,105
2017-03-12T07:14:28.891Z,105
2017-03-12T07:15:37.502Z,105
2017-03-12T07:16:46.518Z,105
2017-03-12T07:17:55.185Z,110
2017-03-12T07:19:04.192Z,110
2017-03-12T07:20:12.801Z,110
2017-03-12T07:21:22.195Z,110
2017-03-12T07:22:31.246Z,110
2017-03-12T07:23:40.249Z,110
2017-03-12T07:24:49.299Z,110
2017-03-12T07:25:58.325Z,110
2017-03-12T07:27:07.766Z,110
2017-03-12T07:28:16.381Z,110
2017-03-12T07:29:25.823Z,115
2017-03-12T07:30:35.623Z,115
2017-03-12T07:31:45.430Z,115
2017-03-12T07:32:54.832Z,115
2017-03-12T07:34:03.860Z,115
2017-03-12T07:35:13.687Z,115
2017-03-12T07:36:23.527Z,115
2017-03-12T07:37:32.923Z,120
2017-03-12T07:38:42.326Z,120
2017-03-12T07:39:51.327Z,120
2017-03-12T07:41:01.003Z,120
2017-03-12T07:42:10.410Z,120
2017-03-12T07:43:19.818Z,120
2017-03-12T07:44:30.033Z,120
2017-03-12T07:45:38.629Z,120
2017-03-12T07:46:47.241Z,120
2017-03-12T07:47:56.677Z,120
2017-03-12T07:49:05.679Z,125
2017-03-12T07:50:15.516Z,125
2017-03-12T07:51:25.343Z,125
2017-03-12T07:52:34.367Z,125
2017-03-12T07:53:44.182Z,125
2017-03-12T07:54:53.585Z,125
2017-03-12T07:56:02.200Z,135
2017-03-12T07:57:11.612Z,130
2017-03-12T07:58:21.019Z,130
2017-03-12T07:59:30.462Z,130
2017-03-12T08:00:39.488Z,130
2017-03-12T08:01:48.503Z,135
2017-03-12T08:02:57.508Z,135
2017-03-12T08:04:07.074Z,135
2017-03-12T08:05:15.698Z,135
2017-03-12T08:06:24.723Z,135
2017-03-12T08:07:34.134Z,135
2017-03-12T08:08:43.616Z,135
2017-03-12T08:09:52.288Z,135
2017-03-12T08:11:01.416Z,140
2017-03-12T08:12:10.853Z,140
2017-03-12T08:13:19.501Z,140
2017-03-12T08:14:28.145Z,140
2017-03-12T08:15:36.763Z,140
2017-03-12T08:16:45.767Z,145
2017-03-12T08:17:55.193Z,140
2017-03-12T08:19:04.220Z,140
2017-03-12T08:20:13.267Z,140
2017-03-12T08:21:23.073Z,140
2017-03-12T08:22:31.736Z,140
2017-03-12T08:23:40.439Z,140
2017-03-12T08:24:49.088Z,140
2017-03-12T08:25:57.745Z,140
2017-03-12T08:27:06.841Z,140
2017-03-12T08:28:16.277Z,140
2017-03-12T08:29:25.753Z,140
2017-03-12T08:30:34.762Z,140
2017-03-12T08:31:43.809Z,140
2017-03-12T08:32:53.729Z,145
2017-03-12T08:34:02.780Z,145
2017-03-12T08:35:12.212Z,150
2017-03-12T08:36:21.281Z,150
2017-03-12T08:37:30.795Z,150
2017-03-12T08:38:40.083Z,150
2017-03-12T08:39:49.505Z,150
2017-03-12T08:40:58.515Z,150
2017-03-12T08:42:07.136Z,150
2017-03-12T08:43:16.155Z,155
2017-03-12T08:44:24.759Z,155
2017-03-12T08:45:33.364Z,155
2017-03-12T08:46:42.377Z,155
2017-03-12T08:47:51.003Z,155
2017-03-12T08:49:00.016Z,160
2017-03-12T08:50:09.038Z,160
2017-03-12T08:51:17.681Z,160
2017-03-12T08:52:27.646Z,165
2017-03-12T08:53:36.665Z,165
2017-03-12T08:54:45.287Z,170
2017-03-12T08:55:53.911Z,175
2017-03-12T08:57:02.950Z,180
2017-03-12T08:58:11.561Z,190
2017-03-12T08:59:21.012Z,195
2017-03-12T09:00:30.018Z,205
2017-03-12T09:01:38.616Z,210
2017-03-12T09:02:47.246Z,215
2017-03-12T09:03:56.666Z,220
2017-03-12T09:05:05.674Z,225
2017-03-12T09:06:15.116Z,230
2017-03-12T09:07:24.139Z,230
2017-03-12T09:08:33.546Z,235
2017-03-12T09:09:42.162Z,240
2017-03-12T09:10:50.790Z,240
2017-03-12T09:11:59.851Z,240
2017-03-12T09:13:08.853Z,230
2017-03-12T09:14:18.668Z,230
2017-03-12T09:15:27.686Z,225
2017-03-12T09:16:36.698Z,220
2017-03-12T09:17:45.696Z,220
2017-03-12T09:18:54.307Z,220
2017-03-12T09:20:03.333Z,220
2017-03-12T09:21:12.624Z,220
2017-03-12T09:22:22.048Z,215
2017-03-12T09:23:31.079Z,215
2017-03-12T09:24:40.105Z,215
2017-03-12T09:25:48.728Z,215
2017-03-12T09:26:58.558Z,215
2017-03-12T09:28:07.610Z,215
2017-03-12T09:29:16.215Z,215
2017-03-12T09:30:25.214Z,215
2017-03-12T09:31:37.631Z,225
2017-03-12T09:32:46.358Z,225
2017-03-12T09:33:55.365Z,240
2017-03-12T09:35:04.772Z,245
2017-03-12T09:36:13.382Z,250
2017-03-12T09:37:22.846Z,255
2017-03-12T09:38:32.282Z,255
2017-03-12T09:39:41.317Z,260
2017-03-12T09:40:50.336Z,260
2017-03-12T09:41:59.362Z,260
2017-03-12T09:43:08.372Z,260
2017-03-12T09:44:17.864Z,255
2017-03-12T09:45:26.576Z,255
2017-03-12T09:46:36.001Z,255
2017-03-12T09:47:45.094Z,255
2017-03-12T09:48:54.870Z,255
2017-03-12T09:50:03.559Z,255
2017-03-12T09:51:12.678Z,255
2017-03-12T09:52:22.143Z,255
2017-03-12T09:53:31.923Z,250
2017-03-12T09:54:43.070Z,250
2017-03-12T09:55:53.818Z,250
2017-03-12T09:57:05.100Z,260
2017-03-12T09:58:15.422Z,260
2017-03-12T09:59:26.218Z,260
2017-03-12T10:00:37.884Z,270
2017-03-12T10:01:48.678Z,265
2017-03-12T10:02:59.017Z,260
2017-03-12T10:04:10.229Z,265
2017-03-12T10:05:21.003Z,265
2017-03-12T10:06:32.834Z,255
2017-03-12T10:07:43.477Z,250
2017-03-12T10:08:55.093Z,250
2017-03-12T10:10:06.514Z,250
2017-03-12T10:11:16.398Z,245
2017-03-12T10:12:27.596Z,240
2017-03-12T10:13:38.138Z,235
2017-03-12T10:14:48.733Z,235
2017-03-12T10:15:59.076Z,235
2017-03-12T10:17:10.600Z,230
2017-03-12T10:18:21.372Z,225
2017-03-12T10:19:32.958Z,230
2017-03-12T10:20:42.811Z,220
2017-03-12T10:21:53.903Z,215
2017-03-12T10:23:04.354Z,215
2017-03-12T10:24:14.548Z,210
2017-03-12T10:25:24.664Z,210
2017-03-12T10:26:36.205Z,205
2017-03-12T10:27:45.616Z,205
2017-03-12T10:28:55.128Z,200
2017-03-12T10:30:06.053Z,195
2017-03-12T10:31:15.991Z,195
2017-03-12T10:32:27.601Z,195
2017-03-12T10:33:39.813Z,195
2017-03-12T10:34:50.595Z,195
2017-03-12T10:36:01.092Z,195
2017-03-12T10:37:10.635Z,200
2017-03-12T10:38:20.552Z,200
2017-03-12T10:39:29.999Z,205
2017-03-12T10:40:39.015Z,215
2017-03-12T10:41:48.484Z,210
2017-03-12T10:42:57.937Z,210
2017-03-12T10:44:07.478Z,210
2017-03-12T10:45:16.513Z,210
2017-03-12T10:46:25.582Z,205
2017-03-12T10:47:34.236Z,205
2017-03-12T10:48:43.689Z,205
2017-03-12T10:49:53.999Z,210
2017-03-12T10:51:03.496Z,210
2017-03-12T10:52:13.379Z,205
2017-03-12T10:53:22.065Z,200
2017-03-12T10:54:31.513Z,195
2017-03-12T10:55:40.956Z,195
2017-03-12T10:56:49.992Z,195
2017-03-12T10:57:59.436Z,200
2017-03-12T10:59:08.085Z,205
2017-03-12T11:00:16.704Z,210
2017-03-12T11:01:25.720Z,210
2017-03-12T11:02:34.395Z,210
2017-03-12T11:03:43.422Z,215
2017-03-12T11:04:52.459Z,215
2017-03-12T11:06:01.894Z,215
2017-03-12T11:07:10.939Z,205
2017-03-12T11:08:19.569Z,205
2017-03-12T11:09:28.610Z,205
2017-03-12T11:10:37.474Z,200
2017-03-12T11:11:46.143Z,205
2017-03-12T11:12:54.769Z,200
2017-03-12T11:14:04.622Z,200
2017-03-12T11:15:13.697Z,195
2017-03-12T11:16:22.700Z,195
2017-03-12T11:17:31.702Z,190
2017-03-12T11:18:40.712Z,190
2017-03-12T11:19:50.159Z,185
2017-03-12T11:20:59.032Z,185
2017-03-12T11:22:08.436Z,185
2017-03-12T11:23:18.250Z,185
2017-03-12T11:24:26.852Z,180
2017-03-12T11:25:35.855Z,175
2017-03-12T11:26:44.460Z,175
2017-03-12T11:27:53.864Z,180
2017-03-12T11:29:02.485Z,180
2017-03-12T11:30:11.101Z,180
2017-03-12T11:31:19.746Z,175
2017-03-12T11:32:28.766Z,180
2017-03-12T11:33:38.805Z,180
2017-03-12T11:34:47.802Z,175
2017-03-12T11:35:57.306Z,180
2017-03-12T11:37:10.159Z,175
2017-03-12T11:38:19.182Z,180
2017-03-12T11:39:28.599Z,180
2017-03-12T11:40:37.228Z,180
2017-03-12T11:41:46.229Z,180
2017-03-12T11:42:55.278Z,175
2017-03-12T11:44:05.094Z,175
2017-03-12T11:45:13.704Z,175
2017-03-12T11:46:23.118Z,175
2017-03-12T11:47:35.518Z,175
2017-03-12T11:48:47.192Z,180
2017-03-12T11:49:58.058Z,180
2017-03-12T11:51:09.065Z,185
2017-03-12T11:52:20.245Z,200
2017-03-12T11:53:30.868Z,195
2017-03-12T11:54:41.588Z,200
2017-03-12T11:55:52.830Z,210
2017-03-12T11:57:04.495Z,215
2017-03-12T11:58:15.857Z,220
2017-03-12T11:59:27.994Z,220
2017-03-12T12:00:39.642Z,225
2017-03-12T12:01:48.274Z,225
2017-03-12T12:02:57.689Z,220
2017-03-12T12:04:07.090Z,215
2017-03-12T12:05:16.501Z,210
2017-03-12T12:06:25.530Z,210
2017-03-12T12:07:34.931Z,210
2017-03-12T12:08:44.352Z,210
2017-03-12T12:09:53.386Z,205
2017-03-12T12:11:02.816Z,205
2017-03-12T12:12:11.432Z,205
2017-03-12T12:13:21.306Z,205
2017-03-12T12:14:30.727Z,205
2017-03-12T12:15:39.364Z,200
2017-03-12T12:16:48.391Z,190
2017-03-12T12:17:59.097Z,190
2017-03-12T12:19:10.576Z,185
2017-03-12T12:20:21.826Z,180
2017-03-12T12:21:33.926Z,180
2017-03-12T12:22:45.900Z,175
2017-03-12T12:23:58.215Z,175
2017-03-12T12:25:09.038Z,170
2017-03-12T12:26:20.977Z,170
2017-03-12T12:27:32.208Z,165
2017-03-12T12:28:43.959Z,165
2017-03-12T12:29:53.982Z,165
2017-03-12T12:31:05.655Z,165
2017-03-12T12:32:16.782Z,165
2017-03-12T12:33:27.563Z,165
2017-03-12T12:34:38.323Z,160
2017-03-12T12:35:49.491Z,165
2017-03-12T12:37:00.199Z,160
2017-03-12T12:38:12.245Z,160
2017-03-12T12:39:21.738Z,165
2017-03-12T12:40:32.580Z,160
2017-03-12T12:41:42.011Z,160
2017-03-12T12:42:52.380Z,160
2017-03-12T12:44:03.159Z,165
2017-03-12T12:45:13.732Z,165
2017-03-12T12:46:24.792Z,160
2017-03-12T12:47:34.478Z,165
2017-03-12T12:48:45.687Z,160
2017-03-12T12:49:57.686Z,160
2017-03-12T12:51:36.545Z,160
2017-03-12T12:52:47.299Z,160
2017-03-12T12:53:59.031Z,155
2017-03-12T12:55:11.536Z,160
2017-03-12T12:56:23.222Z,155
2017-03-12T12:57:34.731Z,155
2017-03-12T12:58:45.650Z,150
2017-03-12T12:59:55.625Z,150
2017-03-12T13:01:06.719Z,150
2017-03-12T13:02:15.873Z,150
2017-03-12T13:03:27.553Z,150
2017-03-12T13:04:38.963Z,145
2017-03-12T13:05:50.641Z,145
2017-03-12T13:07:02.674Z,160
2017-03-12T13:08:12.042Z,150
2017-03-12T13:09:20.755Z,160
2017-03-12T13:10:30.047Z,160
2017-03-12T13:11:38.665Z,160
2017-03-12T13:12:47.292Z,160
2017-03-12T13:13:56.352Z,160
2017-03-12T13:15:05.393Z,160
2017-03-12T13:16:14.417Z,160
2017-03-12T13:17:23.934Z,160
2017-03-12T13:18:33.417Z,160
2017-03-12T13:19:42.542Z,160
2017-03-12T13:20:51.636Z,160
2017-03-12T13:22:01.448Z,160
2017-03-12T13:23:10.097Z,160
2017-03-12T13:24:19.932Z,160
2017-03-12T13:25:29.358Z,155
2017-03-12T13:26:37.962Z,160
2017-03-12T13:27:47.425Z,160
2017-03-12T13:28:56.491Z,165
2017-03-12T13:30:05.558Z,160
2017-03-12T13:31:15.015Z,155
2017-03-12T13:32:24.465Z,160
2017-03-12T13:33:33.933Z,160
2017-03-12T13:34:43.011Z,155
2017-03-12T13:35:52.781Z,155
2017-03-12T13:37:02.268Z,150
2017-03-12T13:38:11.349Z,145
2017-03-12T13:39:20.801Z,145
2017-03-12T13:40:29.433Z,145
2017-03-12T13:41:38.944Z,140
2017-03-12T13:42:47.608Z,145
2017-03-12T13:43:56.683Z,140
2017-03-12T13:45:05.902Z,140
2017-03-12T13:46:15.421Z,140
2017-03-12T13:47:24.076Z,140
2017-03-12T13:48:33.534Z,145
2017-03-12T13:49:42.568Z,150
2017-03-12T13:50:51.209Z,150
2017-03-12T13:52:00.267Z,155
2017-03-12T13:53:08.904Z,155
2017-03-12T13:54:17.542Z,155
2017-03-12T13:55:26.584Z,155
2017-03-12T13:56:35.470Z,155
2017-03-12T13:57:44.535Z,155
2017-03-12T13:58:54.780Z,155
2017-03-12T14:00:03.817Z,160
2017-03-12T14:01:12.488Z,160
2017-03-12T14:02:21.539Z,160
2017-03-12T14:03:30.985Z,165
2017-03-12T14:04:40.056Z,165
2017-03-12T14:05:49.531Z,170
2017-03-12T14:06:58.595Z,170
2017-03-12T14:08:07.651Z,170
2017-03-12T14:09:17.070Z,170
2017-03-12T14:10:26.491Z,170
2017-03-12T14:11:35.492Z,170
2017-03-12T14:12:44.518Z,175
2017-03-12T14:13:54.865Z,175
2017-03-12T14:15:03.508Z,175
2017-03-12T14:16:12.118Z,175
2017-03-12T14:17:22.186Z,175
2017-03-12T14:18:31.596Z,175
2017-03-12T14:19:41.417Z,175
2017-03-12T14:20:50.967Z,175
2017-03-12T14:21:59.967Z,175
2017-03-12T14:23:09.427Z,175
2017-03-12T14:24:18.847Z,175
2017-03-12T14:25:27.886Z,175
2017-03-12T14:26:37.011Z,175
2017-03-12T14:27:46.068Z,180
2017-03-12T14:28:55.112Z,180
2017-03-12T14:30:03.763Z,180
2017-03-12T14:31:12.819Z,180
2017-03-12T14:32:22.099Z,180
2017-03-12T14:33:31.519Z,175
2017-03-12T14:34:40.940Z,175
2017-03-12T14:35:49.557Z,175
2017-03-12T14:36:58.978Z,170
2017-03-12T14:38:08.084Z,170
2017-03-12T14:39:17.118Z,170
2017-03-12T14:40:25.742Z,170
2017-03-12T14:41:35.170Z,170
2017-03-12T14:42:44.997Z,170
2017-03-12T14:43:54.017Z,170
2017-03-12T14:45:02.696Z,170
2017-03-12T14:46:11.310Z,170
2017-03-12T14:47:20.733Z,165
2017-03-12T14:48:30.147Z,170
2017-03-12T14:49:38.790Z,165
2017-03-12T14:50:48.193Z,165
2017-03-12T14:51:58.006Z,175
2017-03-12T14:53:07.008Z,170
2017-03-12T14:54:16.833Z,165
2017-03-12T14:55:25.835Z,165
2017-03-12T14:56:34.848Z,165
2017-03-12T14:57:43.882Z,165
2017-03-12T14:58:53.320Z,165
2017-03-12T15:00:02.330Z,160
2017-03-12T15:01:10.965Z,160
2017-03-12T15:02:20.374Z,160
2017-03-12T15:03:29.004Z,155
2017-03-12T15:04:38.320Z,155
2017-03-12T15:05:46.930Z,155
2017-03-12T15:06:56.588Z,150
2017-03-12T15:08:06.014Z,150
2017-03-12T15:09:14.619Z,155
2017-03-12T15:10:23.244Z,150
2017-03-12T15:11:32.344Z,145
2017-03-12T15:12:40.951Z,145
2017-03-12T15:13:49.969Z,145
2017-03-12T15:14:59.040Z,140
2017-03-12T15:16:08.529Z,140
2017-03-12T15:17:18.368Z,140
2017-03-12T15:18:27.501Z,140
2017-03-12T15:19:36.586Z,140
2017-03-12T15:20:45.198Z,140
2017-03-12T15:21:54.642Z,140
2017-03-12T15:23:04.132Z,140
2017-03-12T15:24:13.202Z,140
2017-03-12T15:25:22.246Z,145
2017-03-12T15:26:31.311Z,145
2017-03-12T15:27:40.372Z,145
2017-03-12T15:28:49.022Z,140
2017-03-12T15:29:57.694Z,140
2017-03-12T15:31:06.756Z,140
2017-03-12T15:32:15.393Z,140
2017-03-12T15:33:24.462Z,135
2017-03-12T15:34:33.111Z,140
2017-03-12T15:35:42.561Z,130
2017-03-12T15:36:52.392Z,125
2017-03-12T15:38:01.036Z,125
2017-03-12T15:39:09.672Z,120
2017-03-12T15:40:18.710Z,120
2017-03-12T15:41:27.359Z,120
2017-03-12T15:42:35.990Z,120
2017-03-12T15:43:45.472Z,120
2017-03-12T15:44:54.518Z,120
2017-03-12T15:46:03.861Z,115
2017-03-12T15:47:12.936Z,115
2017-03-12T15:48:22.355Z,115
2017-03-12T15:49:31.365Z,115
2017-03-12T15:50:39.974Z,115
2017-03-12T15:51:49.388Z,115
2017-03-12T15:52:58.397Z,110
2017-03-12T15:54:07.852Z,110
2017-03-12T15:55:16.468Z,110
2017-03-12T15:56:28.095Z,110
2017-03-12T15:57:37.523Z,110
2017-03-12T15:58:46.169Z,110
2017-03-12T15:59:55.178Z,110
2017-03-12T16:01:04.200Z,110
2017-03-12T16:02:13.210Z,105
2017-03-12T16:03:22.277Z,105
2017-03-12T16:04:31.318Z,105
2017-03-12T16:05:40.401Z,105
2017-03-12T16:06:49.822Z,100
2017-03-12T16:07:58.872Z,100
2017-03-12T16:09:07.555Z,100
2017-03-12T16:10:17.050Z,95
2017-03-12T16:11:25.735Z,95
2017-03-12T16:12:35.149Z,90
2017-03-12T16:13:44.575Z,90
2017-03-12T16:14:53.602Z,90
2017-03-12T16:16:02.210Z,90
2017-03-12T16:17:11.251Z,85
2017-03-12T16:18:20.702Z,85
2017-03-12T16:19:29.759Z,85
2017-03-12T16:20:39.214Z,80
2017-03-12T16:21:48.291Z,80
2017-03-12T16:22:58.121Z,80